Nearby METAR Reports

 

KAPA - Denver/Arapahoe, Colorado, USA
Distance from station: W 7mi, 11km
Updated: Thu, 18-Apr-2024 11:53pm MDT
Overcast
Overcast
 Wind from NNW
Wind: NNW 3 mph , 6 km/h
Temperature: 32°F , 0°C
Dew Point: 30°F , -1°C
Humidity: 93%
Barometer: 30.20 inHg , 1022.7 hPa
Clouds: Overcast
Visibility: 8 miles , 13 km
Cloud details: Mostly cloudy 400 ft
Overcast 1300 ft
2024/04/19 05:53 KAPA 190553Z 34003KT 8SM BKN004 OVC013 00/M01 A3020 RMK AO2 SLP254 P0001 60003 I1002 I6002 T00001006 10011 20000 58006
KBKF - Buckley Angb/Den, Colorado, USA
Distance from station: N 11mi, 17km
Updated: Thu, 18-Apr-2024 11:58pm MDT
Light snow, Mist, Overcast
Light snow, Mist, Overcast
 Wind from E
Wind: E 7 mph , 11 km/h
Temperature: 34°F , 1°C
Wind Chill: 28°F , -2°C
Dew Point: 32°F , 0°C
Humidity: 93%
Barometer: 30.20 inHg , 1022.7 hPa
Summary: Light snow, Mist
Clouds: Overcast
Visibility: 2 miles , 3 km
Cloud details: Overcast 400 ft
2024/04/19 05:58 KBKF 190558Z 09006KT 2SM -SN BR OVC004 01/M00 A3020 RMK AO2A SLP235 P0000 60002 T00051002 10012 20002 58006
 
KCFO - Denver Space Por, Colorado, USA
Distance from station: NNE 18mi, 29km
Updated: Fri, 19-Apr-2024 12:15am MDT
Mist, Overcast
Mist, Overcast
 Wind from ESE
Wind: ESE 8 mph , 13 km/h
Temperature: 36°F , 2°C
Wind Chill: 30°F , -1°C
Dew Point: 34°F , 1°C
Humidity: 93%
Barometer: 30.22 inHg , 1023.4 hPa
Summary: Mist
Clouds: Overcast
Visibility: 3 miles , 5 km
Cloud details: Overcast 500 ft
2024/04/19 06:15 KCFO 190615Z AUTO 11007KT 3SM BR OVC005 02/01 A3022 RMK AO2 T00150006
KDEN - Denver (dia), Colorado, USA
Distance from station: N 20mi, 32km
Updated: Thu, 18-Apr-2024 11:53pm MDT
Mist, Overcast
Mist, Overcast
 Wind from E
Wind: E 10 mph , 17 km/h
Temperature: 34°F , 1°C
Wind Chill: 26°F , -3°C
Dew Point: 30°F , -1°C
Humidity: 87%
Barometer: 30.23 inHg , 1023.7 hPa
Summary: Mist
Clouds: Overcast
Visibility: 5 miles , 8 km
Cloud details: Few Clouds 400 ft
Partly cloudy 2200 ft
Overcast 2500 ft
2024/04/19 05:53 KDEN 190553Z 10009KT 5SM BR FEW004 SCT022 OVC025 01/M01 A3023 RMK AO2 SLP246 60000 I1000 I6004 T00061006 10022 20000 58005 $
 
KBJC - Broomfield/Jeffc, Colorado, USA
Distance from station: NW 31mi, 49km
Updated: Fri, 19-Apr-2024 12:15am MDT
Overcast
Overcast
 Wind from ESE
Wind: ESE 3 mph , 6 km/h
Temperature: 32°F , 0°C
Dew Point: 32°F , 0°C
Humidity: 100%
Barometer: 30.22 inHg , 1023.4 hPa
Clouds: Overcast
Visibility: 7 miles , 11 km
Cloud details: Overcast 400 ft
2024/04/19 06:15 KBJC 190615Z AUTO 11003KT 7SM OVC004 00/00 A3022 RMK AO2
KEIK - Erie Muni, Colorado, USA
Distance from station: NNW 36mi, 58km
Updated: Fri, 19-Apr-2024 12:15am MDT
Overcast
Overcast
 Wind from calm
Wind: Calm
Temperature: 34°F , 1°C
Dew Point: 32°F , 0°C
Humidity: 93%
Barometer: 30.23 inHg , 1023.7 hPa
Clouds: Overcast
Visibility: 10 miles , 16 km
Cloud details: Mostly cloudy 700 ft
Mostly cloudy 1200 ft
Overcast 2000 ft
2024/04/19 06:15 KEIK 190615Z AUTO 00000KT 10SM BKN007 BKN012 OVC020 01/00 A3023 RMK AO2 T00130004 $
 
KAFF - Usaf Academy/Cos, Colorado, USA
Distance from station: S 42mi, 67km
Updated: Thu, 18-Apr-2024 11:55pm MDT
Overcast
Overcast
 Wind from SSE
Wind: SSE 12 mph , 19 km/h
Temperature: 34°F , 1°C
Wind Chill: 25°F , -4°C
Dew Point: 28°F , -2°C
Humidity: 81%
Barometer: 30.19 inHg , 1022.4 hPa
Clouds: Overcast
Visibility: 10 miles , 16 km
Cloud details: Overcast 1800 ft
2024/04/19 05:55 KAFF 190555Z AUTO 15010KT 10SM OVC018 01/M02 A3019 RMK AO2 SLP241 60000 T00131025 10016 20011 58001
KBDU - Boulder Muni, Colorado, USA
Distance from station: NW 42mi, 68km
Updated: Fri, 19-Apr-2024 12:15am MDT
Overcast
Overcast
 Wind from calm
Wind: Calm
Temperature: 32°F , 0°C
Dew Point: 32°F , 0°C
Humidity: 100%
Barometer: 30.22 inHg , 1023.4 hPa
Clouds: Overcast
Visibility: 2 1/2 miles , 4 km
Cloud details: Partly cloudy 100 ft
Overcast 1000 ft
2024/04/19 06:15 KBDU 190615Z AUTO 00000KT 2 1/2SM UP SCT001 OVC010 00/00 A3022 RMK AO2
 
KFLY - Co Spngs Meadow, Colorado, USA
Distance from station: SSE 43mi, 70km
Updated: Fri, 19-Apr-2024 12:15am MDT
Overcast
Overcast
 Wind from S
Wind: S 12 mph , 19 km/h, Gust: 17 mph , 28 km/h
Temperature: 32°F , 0°C
Wind Chill: 23°F , -5°C
Dew Point: 27°F , -3°C
Humidity: 80%
Barometer: 30.22 inHg , 1023.4 hPa
Clouds: Overcast
Visibility: 10 miles , 16 km
Cloud details: Overcast 1500 ft
2024/04/19 06:15 KFLY 190615Z AUTO 17010G15KT 10SM OVC015 00/M03 A3022 RMK AO2 T00031029
KLMO - Longmont/Vbrand, Colorado, USA
Distance from station: NNW 48mi, 77km
Updated: Fri, 19-Apr-2024 12:15am MDT
Overcast
Overcast
 Wind from calm
Wind: Calm
Temperature: 36°F , 2°C
Dew Point: 32°F , 0°C
Humidity: 87%
Barometer: 30.25 inHg , 1024.4 hPa
Clouds: Overcast
Visibility: 7 miles , 11 km
Cloud details: Mostly cloudy 1200 ft
Overcast 1800 ft
2024/04/19 06:15 KLMO 190615Z AUTO 00000KT 7SM BKN012 OVC018 02/00 A3025 RMK AO2 T00200001
 
KCOS - Colorado Springs, Colorado, USA
Distance from station: S 52mi, 83km
Updated: Thu, 18-Apr-2024 11:54pm MDT
Overcast
Overcast
 Wind from S
Wind: S 15 mph , 24 km/h
Temperature: 37°F , 3°C
Wind Chill: 28°F , -2°C
Dew Point: 28°F , -2°C
Humidity: 70%
Barometer: 30.22 inHg , 1023.4 hPa
Clouds: Overcast
Visibility: 10 miles , 16 km
Cloud details: Mostly cloudy 2000 ft
Overcast 2600 ft
2024/04/19 05:54 KCOS 190554Z 18013KT 10SM BKN020 OVC026 03/M02 A3022 RMK AO2 SLP251 T00281022 10033 20028 58001
KSHM - Schriever Afb, Colorado, USA
Distance from station: SSE 54mi, 87km
Updated: Thu, 18-Apr-2024 11:55pm MDT
Overcast
Overcast
 Wind from SE
Wind: SE 9 mph , 15 km/h
Temperature: 36°F , 2°C
Wind Chill: 29°F , -2°C
Dew Point: 27°F , -3°C
Humidity: 70%
Barometer: 30.18 inHg , 1022 hPa
Clouds: Overcast
Visibility: 10 miles , 16 km
Cloud details: Overcast 2100 ft
2024/04/19 05:55 KSHM 190555Z AUTO 13008KT 10SM OVC021 02/M03 A3018 RMK AO2 SLP241 T00211034 10031 20021 58002 $
 
K4BM - Wilkerson Pass, Colorado, USA
Distance from station: SW 55mi, 89km
Updated: Fri, 19-Apr-2024 12:15am MDT
Clear
Clear
 Wind from S
Wind: S 7 mph , 11 km/h
Temperature: 32°F , 0°C
Wind Chill: 25°F , -4°C
Dew Point: 27°F , -3°C
Humidity: 80%
Barometer: 30.24 inHg , 1024 hPa
Clouds: Clear
Visibility: 10 miles , 16 km
2024/04/19 06:15 K4BM 190615Z AUTO 19006KT 10SM CLR 00/M03 A3024 RMK AO2
KCWN - Cheyenne Mtn, Colorado, USA
Distance from station: S 57mi, 91km
Updated: Fri, 19-Apr-2024 12:05am MDT
Light drizzle, Overcast
Light drizzle, Overcast
 Wind from calm
Wind: Calm
Temperature: 32°F , 0°C
Dew Point: 32°F , 0°C
Humidity: 100%
Barometer: 30.17 inHg , 1021.7 hPa
Summary: Light Drizzle
Clouds: Overcast
Visibility: 8 miles , 13 km
Cloud details: Few Clouds 500 ft
Partly cloudy 1200 ft
Overcast 2100 ft
2024/04/19 06:05 KCWN 190605Z AUTO 00000KT 8SM -DZ FEW005 SCT012 OVC021 00/M00 A3017 RMK AO2 CIG 011V023 SLP149 $
 
K0CO - Berthoud Pass, Colorado, USA
Distance from station: WNW 58mi, 93km
Updated: Fri, 19-Apr-2024 12:15am MDT

 Wind from W
Wind: W 35 mph , 56 km/h, Gust: 47 mph , 76 km/h
Temperature: 23°F , -5°C
Wind Chill: 4°F , -16°C
Dew Point: 23°F , -5°C
Humidity: 100%
Barometer: 30.18 inHg , 1022 hPa
2024/04/19 06:15 K0CO 190615Z AUTO 28030G41KT M05/M05 A3018 RMK AO2 PWINO
KGXY - Greeley/Weld, Colorado, USA
Distance from station: N 59mi, 95km
Updated: Thu, 18-Apr-2024 11:56pm MDT
Overcast
Overcast
 Wind from NNE
Wind: NNE 3 mph , 6 km/h
Temperature: 36°F , 2°C
Dew Point: 30°F , -1°C
Humidity: 81%
Barometer: 30.26 inHg , 1024.7 hPa
Clouds: Overcast
Visibility: 10 miles , 16 km
Cloud details: Mostly cloudy 3100 ft
Overcast 5000 ft
2024/04/19 05:56 KGXY 190556Z 03003KT 10SM BKN031 OVC050 02/M01 A3026 RMK AO2 SLP276 60000 T00171006 10033 20017 58003 FZRANO
 
KABH - Ellicott-B Afa, Colorado, USA
Distance from station: SSE 60mi, 96km
Updated: Thu, 18-Apr-2024 11:55pm MDT
Overcast
Overcast
 Wind from SE
Wind: SE 13 mph , 20 km/h
Temperature: 36°F , 2°C
Wind Chill: 27°F , -3°C
Dew Point: 27°F , -3°C
Humidity: 70%
Barometer: 30.24 inHg , 1024 hPa
Clouds: Overcast
Visibility: 10 miles , 16 km
Cloud details: Overcast 2500 ft
2024/04/19 05:55 KABH 190555Z AUTO 13011KT 10SM OVC025 02/M03 A3024 RMK AO2 SLP265 T00181035 10030 20018 50001
KLIC - Limon, Colorado, USA
Distance from station: ESE 60mi, 97km
Updated: Fri, 19-Apr-2024 12:05am MDT
Overcast
Overcast
 Wind from ESE
Wind: ESE 12 mph , 19 km/h
Temperature: 36°F , 2°C
Wind Chill: 28°F , -2°C
Dew Point: 27°F , -3°C
Humidity: 70%
Barometer: 30.24 inHg , 1024 hPa
Clouds: Overcast
Visibility: 10 miles , 16 km
Cloud details: Mostly cloudy 2400 ft
Overcast 3400 ft
2024/04/19 06:05 KLIC 190605Z AUTO 12010KT 10SM BKN024 OVC034 02/M03 A3024 RMK AO2 T00221033
 
KFCS - Fort Carson, Colorado, USA
Distance from station: S 62mi, 100km
Updated: Thu, 18-Apr-2024 11:55pm MDT
Overcast
Overcast
 Wind from SSE
Wind: SSE 10 mph , 17 km/h
Temperature: 37°F , 3°C
Wind Chill: 30°F , -1°C
Dew Point: 25°F , -4°C
Humidity: 60%
Barometer: 30.20 inHg , 1022.7 hPa
Clouds: Overcast
Visibility: 10 miles , 16 km
Cloud details: Few Clouds 1100 ft
Mostly cloudy 1600 ft
Overcast 2500 ft
2024/04/19 05:55 KFCS 190555Z AUTO 16009KT 10SM FEW011 BKN016 OVC025 03/M04 A3020 RMK AO2 SLP260 T00331040 10045 20030 58001 $
KFNL - Ft Collins/Lovel, Colorado, USA
Distance from station: NNW 63mi, 102km
Updated: Thu, 18-Apr-2024 11:56pm MDT
Overcast
Overcast
 Wind from calm
Wind: Calm
Temperature: 34°F , 1°C
Dew Point: 28°F , -2°C
Humidity: 81%
Barometer: 30.25 inHg , 1024.4 hPa
Clouds: Overcast
Visibility: 10 miles , 16 km
Cloud details: Mostly cloudy 1100 ft
Mostly cloudy 1800 ft
Overcast 2400 ft
2024/04/19 05:56 KFNL 190556Z 00000KT 10SM BKN011 BKN018 OVC024 01/M02 A3025 RMK AO2 SLP256 60000 T00061017 10017 20006 58004 FZRANO